createdAt,value
2023-03-29T00:00:32.269Z,1014.20
2023-03-29T00:01:35.462Z,1014.14
2023-03-29T21:00:25.675Z,1005.52
2023-03-29T21:01:25.637Z,1005.51
2023-03-29T21:02:25.617Z,1005.48
2023-03-29T21:03:25.599Z,1005.47
2023-03-29T21:04:25.438Z,1005.51
2023-03-29T21:05:25.406Z,1005.45
2023-03-29T21:06:25.341Z,1005.43
2023-03-29T21:07:25.294Z,1005.45
2023-03-29T21:08:25.248Z,1005.44
2023-03-29T21:09:25.203Z,1005.40
2023-03-29T21:10:25.162Z,1005.40
2023-03-29T21:11:25.114Z,1005.42
2023-03-29T21:13:25.025Z,1005.31
2023-03-29T21:14:24.978Z,1005.28
2023-03-29T21:15:24.935Z,1005.28
2023-03-29T21:16:25.177Z,1005.22
2023-03-29T21:17:24.879Z,1005.21
2023-03-29T21:18:24.810Z,1005.19
2023-03-29T21:19:24.768Z,1005.19
2023-03-29T21:20:24.720Z,1005.18
2023-03-29T21:21:24.670Z,1005.18
2023-03-29T21:22:24.624Z,1005.16
2023-03-29T21:23:24.585Z,1005.14
2023-03-29T21:24:24.547Z,1005.12
2023-03-29T21:25:24.499Z,1005.12
2023-03-29T21:26:24.452Z,1005.13
2023-03-29T21:27:24.413Z,1005.12
2023-03-29T21:28:24.378Z,1005.09
2023-03-29T21:29:24.329Z,1005.08
2023-03-29T21:30:24.282Z,1005.05
2023-03-29T21:32:16.660Z,1004.98
2023-03-29T21:33:16.589Z,1004.97
2023-03-29T21:34:16.553Z,1004.94
2023-03-29T21:35:16.501Z,1004.94
2023-03-29T21:36:16.495Z,1004.95
2023-03-29T21:37:16.416Z,1004.97
2023-03-29T21:38:16.376Z,1004.93
2023-03-29T21:39:16.382Z,1004.95
2023-03-29T21:40:16.297Z,1004.94
2023-03-29T21:41:16.245Z,1004.95
2023-03-29T21:42:16.210Z,1004.90
2023-03-29T21:43:16.164Z,1004.84
2023-03-29T21:44:16.123Z,1004.85
2023-03-29T21:45:16.074Z,1004.87
2023-03-29T21:46:16.071Z,1004.83
2023-03-29T21:47:15.996Z,1004.84
2023-03-29T21:48:15.973Z,1004.82
2023-03-29T21:49:15.904Z,1004.78
2023-03-29T21:50:15.861Z,1004.77
2023-03-29T21:51:15.821Z,1004.74
2023-03-29T21:52:15.782Z,1004.73
2023-03-29T21:53:15.737Z,1004.68
2023-03-29T21:54:15.698Z,1004.69
2023-03-29T21:55:15.650Z,1004.68
2023-03-29T21:56:15.606Z,1004.66
2023-03-29T21:57:15.585Z,1004.63
2023-03-29T21:58:15.524Z,1004.64
2023-03-29T21:59:15.480Z,1004.62
2023-03-29T22:00:15.473Z,1004.65
2023-03-29T22:01:15.445Z,1004.69
2023-03-29T22:02:15.389Z,1004.68
2023-03-29T22:03:15.338Z,1004.63
2023-03-29T22:04:22.795Z,1004.70
2023-03-29T22:05:15.234Z,1004.72
2023-03-29T22:06:15.201Z,1004.72
2023-03-29T22:07:15.152Z,1004.75
2023-03-29T22:08:15.098Z,1004.71
2023-03-29T22:09:15.074Z,1004.70
2023-03-29T22:10:15.023Z,1004.71
2023-03-29T22:11:14.970Z,1004.76
2023-03-29T22:12:14.929Z,1004.77
2023-03-29T22:13:14.890Z,1004.73
2023-03-29T22:14:14.871Z,1004.72
2023-03-29T22:15:14.825Z,1004.64
2023-03-29T22:16:14.780Z,1004.66
2023-03-29T22:17:14.736Z,1004.63
2023-03-29T22:18:14.676Z,1004.66
2023-03-29T22:19:14.636Z,1004.60
2023-03-29T22:20:14.620Z,1004.65
2023-03-29T22:21:14.583Z,1004.65
2023-03-29T22:22:14.526Z,1004.64
2023-03-29T22:23:14.476Z,1004.70
2023-03-29T22:24:14.420Z,1004.74
2023-03-29T22:25:14.405Z,1004.70
2023-03-29T22:26:14.342Z,1004.67
2023-03-29T22:27:14.310Z,1004.70
2023-03-29T22:28:14.265Z,1004.64
2023-03-29T22:29:14.204Z,1004.62
2023-03-29T22:30:14.166Z,1004.57
2023-03-29T22:31:14.119Z,1004.57
2023-03-29T22:32:14.182Z,1004.58
2023-03-29T22:33:14.033Z,1004.56
2023-03-29T22:34:14.002Z,1004.52
2023-03-29T22:35:13.946Z,1004.50
2023-03-29T22:36:14.012Z,1004.56
2023-03-29T22:37:13.873Z,1004.53
2023-03-29T22:38:13.826Z,1004.52
2023-03-29T22:39:13.798Z,1004.52
2023-03-29T22:40:13.737Z,1004.44
2023-03-29T22:41:13.725Z,1004.52
2023-03-29T22:42:13.647Z,1004.49
2023-03-29T22:43:13.625Z,1004.45
2023-03-29T22:44:13.568Z,1004.44
2023-03-29T22:45:13.520Z,1004.40
2023-03-29T22:46:13.529Z,1004.37
2023-03-29T22:47:13.470Z,1004.35
2023-03-29T22:48:13.403Z,1004.27
2023-03-29T22:49:13.354Z,1004.26
2023-03-29T22:50:13.333Z,1004.22
2023-03-29T22:51:13.292Z,1004.16
2023-03-29T22:52:13.250Z,1004.23
2023-03-29T22:53:13.194Z,1004.27
2023-03-29T22:54:13.178Z,1004.34
2023-03-29T22:55:13.138Z,1004.35
2023-03-29T22:56:13.096Z,1004.30
2023-03-29T22:57:13.101Z,1004.31
2023-03-29T22:58:12.980Z,1004.28
2023-03-29T22:59:12.940Z,1004.31
2023-03-29T23:00:12.901Z,1004.26
2023-03-29T23:01:12.894Z,1004.30
2023-03-29T23:02:12.793Z,1004.25
2023-03-29T23:03:13.087Z,1004.26
2023-03-29T23:04:12.756Z,1004.27
2023-03-29T23:05:12.678Z,1004.30
2023-03-29T23:06:12.673Z,1004.30
2023-03-29T23:07:12.581Z,1004.32
2023-03-29T23:08:12.562Z,1004.29
2023-03-29T23:09:13.905Z,1004.23
2023-03-29T23:10:12.501Z,1004.24
2023-03-29T23:11:12.426Z,1004.17
2023-03-29T23:12:12.376Z,1004.20
2023-03-29T23:13:12.324Z,1004.20
2023-03-29T23:14:12.310Z,1004.21
2023-03-29T23:15:12.257Z,1004.27
2023-03-29T23:16:12.272Z,1004.23
2023-03-29T23:17:12.169Z,1004.18
2023-03-29T23:19:12.089Z,1004.21
2023-03-29T23:22:37.672Z,1004.05
2023-03-29T23:23:37.628Z,1004.05
2023-03-29T23:24:37.558Z,1004.12
2023-03-29T23:25:37.511Z,1004.16
2023-03-29T23:26:37.503Z,1004.20
2023-03-29T23:27:37.434Z,1004.18
2023-03-29T23:28:37.383Z,1004.18
2023-03-29T23:29:37.338Z,1004.12
2023-03-29T23:30:37.296Z,1004.09
2023-03-29T23:31:37.280Z,1004.05
2023-03-29T23:32:37.234Z,1004.04
2023-03-29T23:33:37.167Z,1004.12
2023-03-29T23:34:37.120Z,1004.21
2023-03-29T23:35:37.110Z,1004.17
2023-03-29T23:36:37.032Z,1004.18
2023-03-29T23:37:36.984Z,1004.16
2023-03-29T23:38:36.952Z,1004.19
2023-03-29T23:39:36.919Z,1004.15
2023-03-29T23:40:36.862Z,1004.12
2023-03-29T23:41:36.812Z,1004.14
2023-03-29T23:42:36.772Z,1004.10
2023-03-29T23:43:36.719Z,1004.09
2023-03-29T23:44:36.677Z,1004.06
2023-03-29T23:45:36.630Z,1004.08
2023-03-29T23:46:36.622Z,1004.01
2023-03-29T23:47:36.593Z,1004.03
2023-03-29T23:48:36.502Z,1004.09
2023-03-29T23:49:36.451Z,1003.98
2023-03-29T23:50:36.411Z,1004.00
2023-03-29T23:51:36.363Z,1004.02
2023-03-29T23:52:36.320Z,1003.97
2023-03-29T23:53:36.276Z,1003.98
2023-03-29T23:54:36.253Z,1004.02
2023-03-29T23:55:36.213Z,1004.01
2023-03-29T23:56:36.144Z,1003.93
2023-03-29T23:57:36.101Z,1003.89
2023-03-29T23:58:36.074Z,1003.95
2023-03-29T23:59:36.012Z,1003.93
